Time;durP1;ratioP1;P1;durP2;ratioP2;P2;SDS_P1;SDS_P2;PMS_P1;PMS_P2;Temp;Humidity;BMP_temperature;BMP_pressure;BME280_temperature;BME280_humidity;BME280_pressure;Samples;Min_cycle;Max_cycle;Signal;HPM_P1;HPM_P2
2022/05/13 00:02:21;;;;;;;5.10;4.50;;;;;;;11.07;100.00;100701.72;6008088;29;20048;-96
2022/05/13 00:05:56;;;;;;;;;;;;;;;;;;;;;
2022/05/13 00:09:04;;;;;;;5.40;4.80;;;;;;;10.93;100.00;100708.00;6028384;29;20077;-96
2022/05/13 00:12:15;;;;;;;5.30;4.70;;;;;;;10.81;100.00;100706.34;6010066;29;20045;-96
2022/05/13 00:15:25;;;;;;;6.28;4.75;;;;;;;10.76;100.00;100706.69;5986140;29;20061;-96
2022/05/13 00:18:31;;;;;;;5.38;4.88;;;;;;;10.73;100.00;100719.03;6001147;29;20084;-96
2022/05/13 00:21:34;;;;;;;8.38;5.45;;;;;;;10.66;100.00;100710.13;5986936;29;20076;-96
2022/05/13 00:24:47;;;;;;;8.05;5.22;;;;;;;10.74;100.00;100715.53;6010412;29;20042;-96
2022/05/13 00:28:13;;;;;;;7.35;5.10;;;;;;;10.85;100.00;100712.91;6031863;29;20484;-96
2022/05/13 00:31:28;;;;;;;8.80;4.88;;;;;;;10.90;100.00;100710.78;5992321;29;20068;-96
2022/05/13 00:34:39;;;;;;;5.72;5.00;;;;;;;10.91;100.00;100712.47;6005780;29;20056;-96
2022/05/13 00:37:49;;;;;;;7.28;5.40;;;;;;;10.98;100.00;100705.88;6006580;29;20053;-96
2022/05/13 00:40:54;;;;;;;8.05;5.15;;;;;;;10.90;100.00;100713.38;5996853;29;20607;-96
2022/05/13 00:44:03;;;;;;;8.77;5.00;;;;;;;10.80;100.00;100709.84;6012576;29;20117;-96
2022/05/13 00:47:13;;;;;;;9.18;5.18;;;;;;;10.76;100.00;100711.06;5999887;29;20053;-96
2022/05/13 00:50:24;;;;;;;8.57;5.13;;;;;;;10.72;100.00;100709.63;6003164;29;20109;-96
2022/05/13 00:53:41;;;;;;;5.32;4.82;;;;;;;10.68;100.00;100705.63;5992095;29;20053;-96
2022/05/13 00:57:13;;;;;;;6.53;5.50;;;;;;;10.56;100.00;100692.69;6010268;29;20638;-96
2022/05/13 01:00:40;;;;;;;7.55;5.63;;;;;;;10.59;100.00;100693.41;5981952;29;20575;-96
2022/05/13 01:04:28;;;;;;;5.95;5.35;;;;;;;10.66;100.00;100697.19;6000297;29;20057;-96
2022/05/13 01:07:45;;;;;;;7.90;5.82;;;;;;;10.74;100.00;100695.63;6019274;29;20049;-96
2022/05/13 01:11:02;;;;;;;8.07;5.40;;;;;;;10.79;100.00;100697.88;6003664;29;20054;-96
2022/05/13 01:14:27;;;;;;;;;;;;;;;10.77;100.00;100687.63;5984056;29;20041;-96
2022/05/13 01:21:07;;;;;;;6.45;4.45;;;;;;;10.83;100.00;100690.66;6007535;29;20055;-96
2022/05/13 01:24:16;;;;;;;7.40;5.22;;;;;;;10.83;100.00;100701.88;6021033;29;20076;-96
2022/05/13 01:27:47;;;;;;;8.48;5.18;;;;;;;10.84;100.00;100700.09;6026048;29;20132;-96
2022/05/13 01:31:03;;;;;;;6.75;5.32;;;;;;;10.89;100.00;100690.22;6019467;29;20078;-96
2022/05/13 01:34:19;;;;;;;5.47;4.53;;;;;;;10.94;100.00;100683.72;6016007;29;20045;-96
2022/05/13 01:37:33;;;;;;;7.13;5.50;;;;;;;11.01;100.00;100688.44;6013237;29;20052;-96
2022/05/13 01:40:49;;;;;;;7.18;5.10;;;;;;;10.98;100.00;100685.16;6011388;29;20051;-96
2022/05/13 01:44:07;;;;;;;5.82;5.13;;;;;;;10.90;100.00;100677.13;6018515;29;20045;-96
2022/05/13 01:47:19;;;;;;;9.10;5.97;;;;;;;10.81;100.00;100680.44;6012659;29;20046;-96
2022/05/13 01:50:43;;;;;;;7.60;5.72;;;;;;;10.74;100.00;100676.69;6000651;29;20102;-96
2022/05/13 01:54:34;;;;;;;7.25;5.13;;;;;;;10.68;100.00;100671.97;6002690;29;20651;-96
2022/05/13 01:58:12;;;;;;;6.00;5.40;;;;;;;10.65;100.00;100673.03;6017681;29;20113;-96
2022/05/13 02:01:28;;;;;;;8.65;5.32;;;;;;;10.58;100.00;100671.84;6001039;29;20040;-96
2022/05/13 02:04:39;;;;;;;6.72;5.45;;;;;;;10.51;100.00;100675.88;6016739;29;20483;-96
2022/05/13 02:07:59;;;;;;;6.60;5.65;;;;;;;10.42;100.00;100674.78;6014198;29;20085;-96
2022/05/13 02:11:21;;;;;;;7.30;5.45;;;;;;;10.32;100.00;100659.13;6019779;29;20056;-96
2022/05/13 02:14:33;;;;;;;6.18;5.57;;;;;;;10.19;100.00;100658.41;6009025;29;20160;-96
2022/05/13 02:17:43;;;;;;;6.90;5.45;;;;;;;10.20;100.00;100662.63;6017497;29;20042;-96
2022/05/13 02:20:55;;;;;;;6.38;5.60;;;;;;;10.12;100.00;100659.78;6017489;29;20038;-96
2022/05/13 02:24:01;;;;;;;6.03;5.25;;;;;;;10.07;100.00;100665.31;6000734;29;20057;-96
2022/05/13 02:27:43;;;;;;;6.25;5.28;;;;;;;10.01;100.00;100664.94;6031541;29;20606;-96
2022/05/13 02:31:24;;;;;;;6.60;5.22;;;;;;;9.98;100.00;100663.41;6012279;29;20587;-96
2022/05/13 02:35:01;;;;;;;7.03;5.10;;;;;;;9.89;100.00;100664.91;5991105;29;20046;-96
2022/05/13 02:38:27;;;;;;;6.97;5.63;;;;;;;9.89;100.00;100666.69;6021974;29;20044;-96
2022/05/13 02:41:50;;;;;;;7.75;5.60;;;;;;;9.86;100.00;100675.50;6017692;29;20054;-96
2022/05/13 02:45:26;;;;;;;8.15;5.45;;;;;;;9.78;100.00;100669.22;6021564;29;20049;-96
2022/05/13 02:49:21;;;;;;;6.28;4.95;;;;;;;9.75;100.00;100667.69;5935865;29;20139;-96
2022/05/13 02:52:43;;;;;;;7.73;6.17;;;;;;;9.70;100.00;100677.53;5927720;29;20964;-96
2022/05/13 02:55:53;;;;;;;10.82;5.90;;;;;;;9.69;100.00;100668.16;5927805;29;20062;-96
2022/05/13 02:59:35;;;;;;;12.02;6.50;;;;;;;9.78;100.00;100671.81;5930781;29;20153;-96
2022/05/13 03:03:59;;;;;;;7.13;5.57;;;;;;;10.00;100.00;100658.94;5937485;29;20078;-96
2022/05/13 03:07:32;;;;;;;9.95;5.95;;;;;;;10.12;100.00;100655.44;5909512;30;20652;-96
2022/05/13 03:10:48;;;;;;;7.85;6.13;;;;;;;10.18;100.00;100651.56;5907701;30;20043;-96
2022/05/13 03:14:04;;;;;;;8.30;5.32;;;;;;;10.11;100.00;100651.22;5908526;30;20167;-96
2022/05/13 03:17:23;;;;;;;9.88;5.18;;;;;;;10.07;100.00;100648.97;5909456;30;20130;-96
2022/05/13 03:20:33;;;;;;;6.60;5.00;;;;;;;10.03;100.00;100652.72;5951870;29;20051;-96
2022/05/13 03:23:43;;;;;;;6.68;4.80;;;;;;;9.93;100.00;100652.56;5950235;29;20819;-95
2022/05/13 03:27:01;;;;;;;8.05;5.10;;;;;;;9.92;100.00;100653.53;5997783;29;20052;-96
2022/05/13 03:30:23;;;;;;;6.10;5.03;;;;;;;9.88;100.00;100649.50;6028771;29;20060;-96
2022/05/13 03:33:43;;;;;;;9.07;5.43;;;;;;;9.87;100.00;100645.28;6016116;29;20144;-96
2022/05/13 03:37:16;;;;;;;8.07;5.13;;;;;;;9.82;100.00;100647.38;6021885;29;20134;-96
2022/05/13 03:40:39;;;;;;;9.15;4.80;;;;;;;9.80;100.00;100649.25;6007805;29;20045;-96
2022/05/13 03:43:54;;;;;;;7.60;5.40;;;;;;;9.78;100.00;100651.94;6013763;29;20064;-96
2022/05/13 03:47:18;;;;;;;7.07;5.38;;;;;;;9.79;100.00;100650.16;6025750;29;20060;-96
2022/05/13 03:50:38;;;;;;;8.48;5.10;;;;;;;9.77;100.00;100659.81;6035992;29;20041;-96
2022/05/13 03:53:53;;;;;;;6.63;5.10;;;;;;;9.77;100.00;100654.66;6035791;29;20783;-96
2022/05/13 03:57:07;;;;;;;7.03;5.72;;;;;;;9.80;100.00;100651.84;6032447;29;20050;-96
2022/05/13 04:00:29;;;;;;;9.15;4.97;;;;;;;9.82;100.00;100655.13;6043487;29;20103;-96
2022/05/13 04:03:39;;;;;;;6.65;5.10;;;;;;;9.77;100.00;100645.13;6005146;29;20054;-96
2022/05/13 04:11:16;;;;;;;6.47;4.70;;;;;;;9.86;100.00;100643.63;6031788;29;20523;-96
2022/05/13 04:20:45;;;;;;;5.13;4.63;;;;;;;10.08;100.00;100642.84;5983517;29;20161;-96
2022/05/13 04:25:24;;;;;;;;;;;;;;;;;;;;;
2022/05/13 04:29:37;;;;;;;7.65;6.03;;;;;;;10.28;100.00;100656.91;5892582;30;20187;-96
2022/05/13 04:33:43;;;;;;;11.63;6.93;;;;;;;10.41;100.00;100657.63;5838351;30;20057;-96
2022/05/13 04:38:02;;;;;;;9.00;7.22;;;;;;;10.62;100.00;100657.75;5907639;30;20117;-96
2022/05/13 04:52:16;;;;;;;;;;;;;;;;;;;;;
2022/05/13 05:09:24;;;;;;;10.25;7.10;;;;;;;11.96;100.00;100660.09;6578908;23;20061;-96
2022/05/13 05:13:10;;;;;;;9.82;6.60;;;;;;;11.96;100.00;100650.53;6446519;23;20038;-96
2022/05/13 05:52:11;;;;;;;;;;;;;;;;;;;;;
2022/05/13 06:00:18;;;;;;;7.00;3.90;;;;;;;13.28;85.70;100714.66;5973881;29;20062;-96
2022/05/13 06:03:55;;;;;;;6.53;4.15;;;;;;;13.41;84.90;100722.19;5985359;29;20058;-96
2022/05/13 06:07:55;;;;;;;5.95;3.90;;;;;;;13.63;84.49;100735.91;6000865;29;20062;-96
2022/05/13 06:11:23;;;;;;;6.25;3.30;;;;;;;13.70;80.26;100724.81;5957011;29;20054;-96
2022/05/13 06:15:22;;;;;;;7.93;3.47;;;;;;;13.86;80.65;100739.06;6093787;23;20053;-96
2022/05/13 06:23:42;;;;;;;7.25;3.15;;;;;;;14.02;77.99;100728.13;5913039;27;20037;-96
2022/05/13 06:27:07;;;;;;;7.78;3.65;;;;;;;13.97;79.23;100731.13;6064959;29;20039;-96
2022/05/13 06:31:16;;;;;;;7.15;3.85;;;;;;;13.98;79.66;100730.97;5941079;29;20046;-96
2022/05/13 06:35:38;;;;;;;4.53;3.38;;;;;;;14.00;79.01;100749.88;5954816;29;20085;-96
2022/05/13 06:44:23;;;;;;;6.53;3.40;;;;;;;14.29;78.85;100751.63;6107559;23;20052;-96
2022/05/13 06:48:07;;;;;;;10.85;3.90;;;;;;;14.21;79.36;100741.94;6038093;29;20048;-96
2022/05/13 06:51:33;;;;;;;6.88;3.22;;;;;;;14.08;79.18;100751.78;6038571;29;20045;-96
2022/05/13 06:55:33;;;;;;;7.80;3.42;;;;;;;14.44;79.04;100758.03;6043103;29;20084;-96
2022/05/13 06:59:37;;;;;;;7.18;3.58;;;;;;;14.61;77.54;100751.31;6036788;29;20088;-96
2022/05/13 07:02:59;;;;;;;6.55;4.47;;;;;;;14.67;76.58;100744.72;6039930;29;20521;-96
2022/05/13 07:06:11;;;;;;;5.18;3.40;;;;;;;14.62;77.17;100749.53;6053098;29;20055;-96
2022/05/13 07:09:35;;;;;;;7.20;3.05;;;;;;;14.60;76.45;100747.06;6033779;29;20048;-95
2022/05/13 07:13:15;;;;;;;5.45;2.75;;;;;;;14.52;76.14;100744.31;6040609;29;20064;-96
2022/05/13 07:16:47;;;;;;;8.38;3.30;;;;;;;14.73;74.25;100738.09;6065112;29;20104;-96
2022/05/13 07:20:23;;;;;;;6.97;2.97;;;;;;;15.04;75.05;100751.69;6029892;29;20491;-96
2022/05/13 07:23:41;;;;;;;6.53;2.55;;;;;;;15.06;71.03;100755.00;6014533;29;20039;-96
2022/05/13 07:27:14;;;;;;;5.03;2.50;;;;;;;14.84;72.14;100754.38;5906806;30;20117;-95
2022/05/13 07:30:27;;;;;;;6.20;2.78;;;;;;;14.86;73.78;100760.28;5929283;30;20048;-96
2022/05/13 07:33:32;;;;;;;7.50;2.72;;;;;;;14.79;72.66;100751.41;5904513;30;20062;-96
2022/05/13 07:36:35;;;;;;;4.72;2.22;;;;;;;14.67;72.75;100762.13;5944755;29;20041;-96
2022/05/13 07:43:03;;;;;;;5.65;2.55;;;;;;;14.77;71.89;100761.13;6051640;23;20052;-96
2022/05/13 07:46:06;;;;;;;7.65;2.28;;;;;;;14.82;74.09;100750.28;6055395;29;20134;-95
2022/05/13 07:49:08;;;;;;;5.85;2.15;;;;;;;14.89;72.14;100753.16;6019570;29;20060;-96
2022/05/13 07:52:12;;;;;;;7.22;2.97;;;;;;;15.00;70.64;100756.38;6067447;29;20045;-96
2022/05/13 07:55:15;;;;;;;6.70;2.40;;;;;;;14.87;71.84;100748.06;6062450;29;20097;-96
2022/05/13 07:58:21;;;;;;;5.32;2.78;;;;;;;14.68;74.32;100759.38;6060970;29;20074;-96
2022/05/13 08:01:24;;;;;;;4.95;2.55;;;;;;;14.73;74.35;100754.59;6055228;29;20582;-96
2022/05/13 08:04:30;;;;;;;9.35;2.83;;;;;;;15.07;77.48;100749.63;6042490;29;20034;-96
2022/05/13 08:07:39;;;;;;;4.88;2.70;;;;;;;15.60;73.14;100758.53;6066569;29;20059;-96
2022/05/13 08:10:46;;;;;;;4.43;1.83;;;;;;;15.93;70.69;100761.47;6055876;29;20045;-96
2022/05/13 08:13:48;;;;;;;5.40;2.50;;;;;;;15.85;69.09;100770.03;6052995;29;20228;-96
2022/05/13 08:16:50;;;;;;;5.78;2.33;;;;;;;15.77;71.12;100771.75;6048189;29;20525;-96
2022/05/13 08:19:53;;;;;;;4.57;2.03;;;;;;;15.89;69.39;100775.78;6057750;29;20053;-96
2022/05/13 08:22:55;;;;;;;7.68;2.25;;;;;;;16.07;68.78;100771.38;6042220;29;20071;-95
2022/05/13 08:26:00;;;;;;;5.40;1.92;;;;;;;16.43;68.52;100780.94;6041008;29;20049;-96
2022/05/13 08:29:02;;;;;;;4.78;2.00;;;;;;;16.36;67.19;100775.50;6054291;29;20090;-94
2022/05/13 08:32:07;;;;;;;9.35;2.53;;;;;;;16.46;67.65;100778.00;6045482;29;20125;-96
2022/05/13 08:35:11;;;;;;;6.72;2.30;;;;;;;16.31;68.57;100786.41;6062363;29;20045;-96
2022/05/13 08:38:31;;;;;;;6.00;2.33;;;;;;;16.21;66.65;100790.09;6047862;29;20049;-96
2022/05/13 08:42:02;;;;;;;9.13;2.30;;;;;;;16.50;70.30;100789.81;6041635;29;20068;-95
2022/05/13 08:45:07;;;;;;;;;;;;;;;16.58;68.13;100788.06;6018437;29;20049;-96
2022/05/13 08:48:14;;;;;;;7.68;2.58;;;;;;;16.65;67.02;100798.72;6014507;29;20438;-95
2022/05/13 08:51:35;;;;;;;5.25;2.58;;;;;;;16.63;67.93;100802.47;6053307;29;20154;-96
2022/05/13 08:54:38;;;;;;;9.50;2.92;;;;;;;16.26;69.87;100801.72;6047819;29;20089;-96
2022/05/13 08:57:49;;;;;;;10.27;2.90;;;;;;;16.22;69.75;100804.75;6046894;29;20156;-95
2022/05/13 09:00:56;;;;;;;8.00;2.78;;;;;;;16.10;71.42;100805.00;6051547;29;21304;-96
2022/05/13 09:04:03;;;;;;;6.82;2.65;;;;;;;16.17;68.81;100817.47;6057238;29;20517;-95
2022/05/13 09:07:19;;;;;;;7.88;2.92;;;;;;;16.48;70.37;100804.81;6040551;29;20073;-96
2022/05/13 09:10:25;;;;;;;6.75;3.00;;;;;;;16.55;67.59;100801.44;6056323;29;20077;-95
2022/05/13 09:13:46;;;;;;;8.70;3.00;;;;;;;16.31;68.24;100806.47;6063583;29;20109;-96
2022/05/13 09:17:31;;;;;;;4.68;3.35;;;;;;;16.08;69.82;100804.34;6021584;29;20045;-96
2022/05/13 09:20:47;;;;;;;6.78;3.58;;;;;;;16.03;73.01;100798.75;6039375;29;20089;-95
2022/05/13 09:23:52;;;;;;;8.43;3.65;;;;;;;16.07;71.64;100794.03;6072718;29;20104;-96
2022/05/13 09:26:56;;;;;;;10.48;3.70;;;;;;;16.15;69.71;100796.75;6065973;29;20160;-96
2022/05/13 09:30:03;;;;;;;10.50;3.70;;;;;;;16.36;69.48;100799.00;6049707;29;20053;-95
2022/05/13 09:33:30;;;;;;;5.30;2.93;;;;;;;16.55;64.87;100798.00;6059169;29;20056;-95
2022/05/13 09:36:34;;;;;;;7.30;2.95;;;;;;;16.19;68.47;100792.84;6047454;29;20144;-93
2022/05/13 09:39:45;;;;;;;5.78;3.20;;;;;;;16.14;68.54;100790.66;6048717;29;20041;-96
2022/05/13 09:42:51;;;;;;;9.00;3.45;;;;;;;16.75;68.37;100783.75;6041409;29;20403;-96
2022/05/13 09:46:04;;;;;;;4.13;3.13;;;;;;;16.95;67.20;100784.38;6047964;29;20447;-95
2022/05/13 09:49:17;;;;;;;7.38;3.03;;;;;;;16.59;63.27;100783.63;6040831;29;20081;-96
2022/05/13 09:52:31;;;;;;;6.60;3.00;;;;;;;16.34;67.93;100791.31;6041081;29;20122;-96
2022/05/13 09:55:41;;;;;;;4.43;2.58;;;;;;;16.27;65.25;100785.06;6043740;29;20056;-94
2022/05/13 09:58:54;;;;;;;5.57;3.03;;;;;;;16.25;66.59;100807.91;6037583;29;20436;-92
2022/05/13 10:02:15;;;;;;;6.47;3.47;;;;;;;16.18;64.56;100793.81;6034294;29;20072;-95
2022/05/13 10:05:20;;;;;;;6.43;2.92;;;;;;;16.55;62.70;100790.97;6044104;29;20057;-94
2022/05/13 10:08:26;;;;;;;7.47;2.30;;;;;;;17.04;60.07;100793.06;6054396;29;20040;-96
2022/05/13 10:14:49;;;;;;;8.82;2.67;;;;;;;17.59;57.73;100795.22;6052888;29;20041;-96
2022/05/13 10:18:29;;;;;;;6.97;2.28;;;;;;;17.72;55.99;100796.56;6043289;29;20043;-96
2022/05/13 10:21:40;;;;;;;4.20;2.00;;;;;;;17.40;56.54;100788.47;6032808;29;20037;-96
2022/05/13 10:24:54;;;;;;;6.68;2.22;;;;;;;17.19;56.68;100786.28;6057714;29;20127;-96
2022/05/13 10:28:02;;;;;;;8.90;2.80;;;;;;;17.48;57.59;100799.94;6038211;29;20049;-96
2022/05/13 10:31:11;;;;;;;5.72;2.33;;;;;;;17.89;55.34;100800.03;6035735;29;20045;-96
2022/05/13 10:34:27;;;;;;;5.97;2.33;;;;;;;18.05;55.46;100805.28;6028363;29;20053;-95
2022/05/13 10:38:00;;;;;;;6.05;1.90;;;;;;;18.29;53.32;100807.91;6037678;29;20056;-96
2022/05/13 10:41:17;;;;;;;4.68;1.98;;;;;;;18.15;53.04;100819.03;6019701;29;20399;-95
2022/05/13 10:44:58;;;;;;;2.50;1.50;;;;;;;18.05;52.91;100811.34;6045192;29;20579;-96
2022/05/13 10:48:06;;;;;;;3.65;1.35;;;;;;;17.88;51.79;100822.78;5974077;29;20102;-95
2022/05/13 10:51:40;;;;;;;5.10;1.90;;;;;;;17.57;53.86;100822.53;5958229;29;20233;-96
2022/05/13 10:55:03;;;;;;;2.53;1.75;;;;;;;17.55;53.94;100824.50;5974571;29;20082;-95
2022/05/13 10:58:26;;;;;;;4.80;1.75;;;;;;;17.94;55.44;100818.72;5954607;29;20613;-96
2022/05/13 11:02:04;;;;;;;4.50;1.88;;;;;;;18.26;51.55;100826.59;5965698;29;20066;-96
2022/05/13 11:05:14;;;;;;;8.77;2.00;;;;;;;18.24;51.50;100827.75;5977515;29;20130;-95
2022/05/13 11:08:34;;;;;;;3.20;1.60;;;;;;;18.32;49.71;100827.72;5988972;29;20046;-96
2022/05/13 11:11:46;;;;;;;4.63;2.00;;;;;;;18.61;52.34;100832.47;5972183;29;20078;-94
2022/05/13 11:15:16;;;;;;;3.85;2.10;;;;;;;19.01;51.67;100830.75;5960682;29;20684;-95
2022/05/13 11:18:54;;;;;;;5.85;1.98;;;;;;;19.36;49.46;100829.47;5965805;29;20055;-94
2022/05/13 11:22:12;;;;;;;8.82;2.17;;;;;;;19.68;47.05;100840.03;5970709;29;20163;-95
2022/05/13 11:28:57;;;;;;;3.83;1.80;;;;;;;19.15;48.63;100843.19;6049679;29;20178;-95
2022/05/13 11:32:10;;;;;;;6.00;2.00;;;;;;;18.84;49.51;100839.66;6050637;29;20056;-96
2022/05/13 11:35:39;;;;;;;4.90;1.95;;;;;;;18.76;49.85;100837.88;6048302;29;20056;-93
2022/05/13 11:39:24;;;;;;;5.10;1.80;;;;;;;18.53;50.41;100842.94;6075081;29;20152;-95
2022/05/13 11:43:29;;;;;;;5.03;2.13;;;;;;;18.47;49.76;100846.22;6047719;29;20772;-95
2022/05/13 11:46:48;;;;;;;;;;;;;;;18.91;50.47;100840.63;5950618;29;20066;-96
2022/05/13 11:49:51;;;;;;;3.65;1.70;;;;;;;18.87;51.61;100844.56;5976777;29;19928;-94
2022/05/13 11:52:55;;;;;;;4.85;1.75;;;;;;;18.81;49.61;100850.50;6050513;29;20576;-95
2022/05/13 11:56:08;;;;;;;4.25;1.77;;;;;;;18.84;49.32;100837.03;6060096;29;20386;-95
2022/05/13 11:59:28;;;;;;;5.45;2.10;;;;;;;18.61;49.71;100845.56;6045244;29;20075;-96
2022/05/13 12:02:50;;;;;;;4.55;2.03;;;;;;;18.25;51.32;100851.13;6056086;29;20614;-91
2022/05/13 12:06:02;;;;;;;4.65;1.80;;;;;;;17.89;53.97;100849.78;6068387;29;20492;-96
2022/05/13 12:09:10;;;;;;;3.42;2.13;;;;;;;17.93;52.20;100856.34;6030238;29;20076;-96
2022/05/13 12:12:24;;;;;;;5.57;1.85;;;;;;;17.91;51.37;100853.88;6031400;29;20045;-96
2022/05/13 12:15:51;;;;;;;7.35;1.92;;;;;;;18.29;52.52;100846.41;6035148;29;20070;-96
2022/05/13 12:19:14;;;;;;;4.75;2.08;;;;;;;18.95;51.87;100844.53;6057706;29;20069;-95
2022/05/13 12:22:29;;;;;;;3.30;1.95;;;;;;;19.11;50.27;100856.81;6052673;29;20052;-95
2022/05/13 12:25:37;;;;;;;3.65;2.10;;;;;;;19.19;49.77;100859.41;6036808;29;20114;-96
2022/05/13 12:28:55;;;;;;;4.38;1.80;;;;;;;18.85;50.38;100860.47;6040547;29;20050;-96
2022/05/13 12:31:57;;;;;;;4.07;2.40;;;;;;;18.29;52.28;100851.66;6041107;29;20048;-96
2022/05/13 12:38:21;;;;;;;3.58;2.00;;;;;;;18.18;53.06;100858.00;6030891;29;20045;-96
2022/05/13 12:41:27;;;;;;;6.68;2.00;;;;;;;18.49;51.11;100860.81;6028916;29;20056;-95
2022/05/13 12:45:00;;;;;;;4.75;2.10;;;;;;;18.85;49.76;100862.28;6034255;29;20524;-95
2022/05/13 12:48:04;;;;;;;4.05;2.20;;;;;;;19.25;48.29;100852.66;6036420;29;20518;-93
2022/05/13 12:51:09;;;;;;;4.55;2.05;;;;;;;19.61;48.56;100860.88;6023556;29;20053;-96
2022/05/13 12:54:15;;;;;;;3.13;1.90;;;;;;;19.69;48.23;100860.03;6039401;29;20056;-96
2022/05/13 12:57:30;;;;;;;3.35;2.20;;;;;;;20.22;47.63;100856.56;6032942;29;20042;-91
2022/05/13 13:00:44;;;;;;;4.40;2.40;;;;;;;20.43;45.68;100849.81;6036307;29;20054;-94
2022/05/13 13:03:49;;;;;;;6.80;2.10;;;;;;;20.06;46.17;100854.06;6036138;29;20053;-95
2022/05/13 13:06:52;;;;;;;7.10;2.30;;;;;;;20.05;47.72;100862.09;6037877;29;20045;-96
2022/05/13 13:09:57;;;;;;;3.97;2.30;;;;;;;20.09;47.14;100871.28;6038928;29;20045;-96
2022/05/13 13:13:30;;;;;;;4.93;2.13;;;;;;;20.04;46.96;100856.03;6029500;29;20045;-94
2022/05/13 13:17:19;;;;;;;5.22;2.20;;;;;;;20.74;47.22;100844.44;6030600;29;20045;-93
2022/05/13 13:20:25;;;;;;;11.50;2.30;;;;;;;21.26;44.11;100861.16;5967838;29;20649;-95
2022/05/13 13:23:33;;;;;;;4.45;2.10;;;;;;;21.01;42.49;100850.09;5975429;29;20674;-96
2022/05/13 13:26:35;;;;;;;3.40;2.05;;;;;;;20.68;44.53;100850.44;5967732;29;20049;-92
2022/05/13 13:29:41;;;;;;;4.63;2.30;;;;;;;20.31;44.46;100854.69;5957366;29;20051;-94
2022/05/13 13:32:50;;;;;;;6.32;2.50;;;;;;;20.13;46.65;100846.28;5970590;29;20047;-95
2022/05/13 13:35:53;;;;;;;7.53;2.53;;;;;;;20.41;46.85;100841.28;5965054;29;20062;-96
2022/05/13 13:38:58;;;;;;;4.40;2.72;;;;;;;20.85;44.91;100844.00;5939271;29;20053;-95
2022/05/13 13:42:14;;;;;;;6.40;2.58;;;;;;;21.23;44.57;100849.16;5942219;29;20065;-95
2022/05/13 13:45:21;;;;;;;6.30;2.90;;;;;;;20.99;44.32;100852.94;5968987;29;20058;-95
2022/05/13 13:48:37;;;;;;;8.25;2.80;;;;;;;21.09;45.27;100852.63;5952293;29;20070;-96
2022/05/13 13:51:49;;;;;;;6.43;3.45;;;;;;;20.47;45.86;100850.25;5982054;29;20063;-93
2022/05/13 13:54:54;;;;;;;6.32;2.70;;;;;;;19.93;47.89;100846.75;5972137;29;20049;-94
2022/05/13 13:57:56;;;;;;;6.50;3.03;;;;;;;19.47;48.94;100846.66;6025084;29;20339;-96
2022/05/13 14:01:14;;;;;;;6.78;2.75;;;;;;;19.43;50.44;100837.50;6027637;29;20045;-95
2022/05/13 14:04:29;;;;;;;7.45;2.83;;;;;;;20.15;49.49;100846.94;6025389;29;20061;-93
2022/05/13 14:07:42;;;;;;;6.28;2.72;;;;;;;20.67;46.78;100848.81;6045415;29;20060;-96
2022/05/13 14:10:51;;;;;;;5.15;2.67;;;;;;;20.78;43.15;100851.00;6015313;29;20088;-96
2022/05/13 14:13:55;;;;;;;6.18;2.60;;;;;;;20.85;44.24;100854.53;6051574;29;20350;-96
2022/05/13 14:17:12;;;;;;;5.95;2.92;;;;;;;20.67;43.50;100843.56;6023560;29;20052;-93
2022/05/13 14:20:18;;;;;;;6.68;2.60;;;;;;;20.66;46.43;100841.91;6049633;29;20068;-96
2022/05/13 14:23:20;;;;;;;6.03;2.60;;;;;;;20.81;44.19;100840.09;6042713;29;20109;-96
2022/05/13 14:26:25;;;;;;;4.22;2.42;;;;;;;21.25;44.83;100836.66;6115836;23;20060;-96
2022/05/13 14:29:32;;;;;;;4.10;2.10;;;;;;;21.37;43.37;100842.25;6083070;29;20028;-96
2022/05/13 14:32:37;;;;;;;4.22;2.22;;;;;;;21.02;43.94;100844.66;6065637;29;20483;-96
2022/05/13 14:35:43;;;;;;;6.38;2.80;;;;;;;20.98;44.00;100847.84;6065198;29;20049;-95
2022/05/13 14:42:34;;;;;;;6.22;2.30;;;;;;;20.55;47.34;100845.00;6054766;29;20053;-96
2022/05/13 14:45:42;;;;;;;9.48;3.35;;;;;;;20.81;47.02;100863.78;6061662;29;20049;-96
2022/05/13 14:48:44;;;;;;;6.38;4.13;;;;;;;21.15;43.73;100846.66;6058933;29;20100;-96
2022/05/13 14:51:46;;;;;;;5.65;3.03;;;;;;;21.13;44.29;100840.75;6061198;29;20557;-94
2022/05/13 14:54:50;;;;;;;4.38;3.00;;;;;;;20.67;45.21;100848.81;6067232;29;20088;-94
2022/05/13 14:57:53;;;;;;;6.60;3.53;;;;;;;20.39;45.63;100856.41;6050730;29;20059;-96
2022/05/13 15:00:59;;;;;;;7.75;3.45;;;;;;;20.20;46.59;100847.22;6068213;29;20048;-94
2022/05/13 15:04:12;;;;;;;6.57;3.10;;;;;;;20.35;47.32;100866.47;6064155;29;20127;-95
2022/05/13 15:07:19;;;;;;;6.35;3.58;;;;;;;20.60;47.34;100853.16;6060923;29;20529;-96
2022/05/13 15:10:24;;;;;;;5.63;2.83;;;;;;;20.89;46.60;100854.16;6054354;29;20556;-96
2022/05/13 15:13:27;;;;;;;5.60;3.10;;;;;;;20.80;45.69;100850.81;6053640;29;20044;-96
2022/05/13 15:16:31;;;;;;;5.45;3.40;;;;;;;20.70;45.68;100845.81;6064974;29;20183;-96
2022/05/13 15:19:39;;;;;;;5.47;3.15;;;;;;;21.00;45.51;100843.22;6051866;29;20076;-96
2022/05/13 15:22:42;;;;;;;6.30;3.15;;;;;;;21.16;45.46;100840.38;6070026;29;20037;-96
2022/05/13 15:25:47;;;;;;;6.53;3.13;;;;;;;21.06;44.79;100843.28;6042158;29;20513;-96
2022/05/13 15:28:50;;;;;;;6.40;3.17;;;;;;;21.14;45.77;100834.50;6070112;29;20579;-96
2022/05/13 15:31:52;;;;;;;8.40;2.88;;;;;;;21.18;46.11;100837.56;6053414;29;20053;-94
2022/05/13 15:34:55;;;;;;;5.50;2.83;;;;;;;21.34;44.64;100840.00;6053578;29;20056;-93
2022/05/13 15:37:59;;;;;;;4.97;2.53;;;;;;;21.61;43.40;100850.88;6040690;29;20037;-92
2022/05/13 15:41:02;;;;;;;6.45;2.95;;;;;;;21.12;43.57;100849.66;6058838;29;20082;-93
2022/05/13 15:44:05;;;;;;;5.93;3.25;;;;;;;20.83;43.95;100858.34;6066872;29;20041;-94
2022/05/13 15:47:07;;;;;;;7.13;2.88;;;;;;;20.41;45.26;100843.91;6048727;29;20512;-94
2022/05/13 15:53:51;;;;;;;4.43;2.50;;;;;;;20.88;45.42;100857.81;6063031;29;20100;-96
2022/05/13 15:56:54;;;;;;;5.72;2.90;;;;;;;21.12;44.25;100852.28;6072842;29;20139;-93
2022/05/13 15:59:58;;;;;;;5.75;2.58;;;;;;;21.03;44.39;100856.81;6067373;29;20044;-93
2022/05/13 16:03:02;;;;;;;9.00;2.90;;;;;;;21.25;44.38;100849.00;6042177;29;20041;-92
2022/05/13 16:06:05;;;;;;;6.72;2.45;;;;;;;21.01;46.55;100860.63;6043345;29;20041;-92
2022/05/13 16:09:07;;;;;;;4.13;2.50;;;;;;;20.52;46.55;100851.38;6062047;29;20045;-93
2022/05/13 16:12:19;;;;;;;6.20;2.33;;;;;;;20.27;46.82;100850.75;6033578;29;20758;-92
2022/05/13 16:15:24;;;;;;;8.88;3.00;;;;;;;20.54;47.02;100854.63;6046523;29;20052;-92
2022/05/13 16:18:29;;;;;;;2.55;2.35;;;;;;;20.81;45.84;100853.25;6066711;29;20063;-96
2022/05/13 16:21:40;;;;;;;5.03;2.25;;;;;;;20.54;45.63;100844.13;6038641;29;20080;-92
2022/05/13 16:24:45;;;;;;;3.92;2.00;;;;;;;20.39;46.78;100851.97;6040675;29;20420;-92
2022/05/13 16:27:49;;;;;;;5.40;2.20;;;;;;;20.53;47.38;100853.00;6046606;29;20051;-92
2022/05/13 16:30:52;;;;;;;3.88;2.35;;;;;;;20.60;45.90;100851.34;6060165;29;20468;-94
2022/05/13 16:33:56;;;;;;;6.15;2.50;;;;;;;20.38;47.23;100854.78;6052950;29;20041;-92
2022/05/13 16:40:26;;;;;;;6.30;3.20;;;;;;;19.47;48.42;100846.66;6040522;29;20051;-92
2022/05/13 16:43:29;;;;;;;5.72;2.60;;;;;;;19.56;48.49;100852.69;6050743;29;20050;-92
2022/05/13 16:46:31;;;;;;;4.80;2.30;;;;;;;19.48;48.34;100861.44;6050123;29;20124;-92
2022/05/13 16:49:33;;;;;;;5.93;2.75;;;;;;;19.22;49.69;100864.31;6057859;29;20049;-95
2022/05/13 16:52:36;;;;;;;5.72;2.95;;;;;;;19.01;50.41;100861.44;6047653;29;20044;-94
2022/05/13 16:55:41;;;;;;;8.82;2.72;;;;;;;18.89;50.25;100860.97;6042078;29;20120;-91
2022/05/13 16:58:43;;;;;;;6.45;2.22;;;;;;;18.87;50.51;100860.31;6058762;29;20114;-93
2022/05/13 17:01:45;;;;;;;5.32;2.13;;;;;;;19.29;50.94;100856.56;6039838;29;20045;-92
2022/05/13 17:04:48;;;;;;;6.57;2.47;;;;;;;20.37;47.94;100853.16;6053778;29;20087;-92
2022/05/13 17:07:50;;;;;;;4.60;2.13;;;;;;;22.18;43.83;100860.56;6038896;29;20052;-93
2022/05/13 17:17:33;;;;;;;4.72;2.20;;;;;;;20.69;44.66;100856.50;6056833;29;20208;-93
2022/05/13 17:20:35;;;;;;;4.07;2.60;;;;;;;21.06;44.08;100859.06;6037657;29;20045;-95